Time;durP1;ratioP1;P1;durP2;ratioP2;P2;SDS_P1;SDS_P2;PMS_P1;PMS_P2;Temp;Humidity;BMP_temperature;BMP_pressure;BME280_temperature;BME280_humidity;BME280_pressure;Samples;Min_cycle;Max_cycle;Signal;HPM_P1;HPM_P2
2022/06/04 00:01:44;;;;;;;13.85;7.78;;;;;;;;;;10447288;28;20021;-74
2022/06/04 00:06:45;;;;;;;11.77;7.43;;;;;;;;;;10446998;28;20075;-72
2022/06/04 00:17:04;;;;;;;11.95;7.45;;;;;;;;;;10448684;28;20013;-72
2022/06/04 00:22:05;;;;;;;12.35;7.75;;;;;;;;;;10446707;28;20009;-76
2022/06/04 00:27:05;;;;;;;15.80;9.20;;;;;;;;;;10446955;28;20122;-76
2022/06/04 00:32:06;;;;;;;12.53;7.93;;;;;;;;;;10446597;28;20013;-72
2022/06/04 00:37:06;;;;;;;15.07;8.02;;;;;;;;;;10445968;28;20111;-73
2022/06/04 00:42:16;;;;;;;13.13;7.87;;;;;;;;;;10446171;28;20021;-71
2022/06/04 00:47:22;;;;;;;13.60;8.23;;;;;;;;;;10445831;28;20021;-72
2022/06/04 00:52:24;;;;;;;12.48;8.48;;;;;;;;;;10445730;28;20070;-74
2022/06/04 00:57:43;;;;;;;12.73;8.23;;;;;;;;;;10444989;28;20044;-72
2022/06/04 01:02:46;;;;;;;11.40;8.05;;;;;;;;;;10445258;28;20027;-72
2022/06/04 01:07:49;;;;;;;13.93;8.27;;;;;;;;;;10446437;28;20131;-72
2022/06/04 01:13:05;;;;;;;12.00;8.55;;;;;;;;;;10444883;28;20021;-73
2022/06/04 01:18:11;;;;;;;14.45;8.82;;;;;;;;;;10445340;28;20035;-74
2022/06/04 01:23:34;;;;;;;11.55;8.70;;;;;;;;;;10443042;28;20017;-73
2022/06/04 01:28:40;;;;;;;15.43;10.20;;;;;;;;;;10425401;28;20036;-69
2022/06/04 01:33:46;;;;;;;9.88;8.45;;;;;;;;;;10427554;28;20021;-70
2022/06/04 01:38:53;;;;;;;16.73;8.98;;;;;;;;;;10445091;28;20013;-70
2022/06/04 01:43:58;;;;;;;14.75;7.95;;;;;;;;;;10444903;28;20083;-71
2022/06/04 01:49:17;;;;;;;16.27;8.50;;;;;;;;;;10443857;28;20457;-70
2022/06/04 01:54:30;;;;;;;13.80;7.93;;;;;;;;;;10443316;28;20041;-73
2022/06/04 01:59:33;;;;;;;12.38;7.65;;;;;;;;;;10444587;28;20483;-73
2022/06/04 02:04:36;;;;;;;11.00;7.03;;;;;;;;;;10442627;28;20601;-72
2022/06/04 02:09:39;;;;;;;14.85;9.30;;;;;;;;;;10444269;28;20020;-72
2022/06/04 02:14:40;;;;;;;11.45;8.32;;;;;;;;;;10442414;28;20040;-72
2022/06/04 02:19:41;;;;;;;14.27;8.60;;;;;;;;;;10442438;28;20111;-73
2022/06/04 02:24:42;;;;;;;17.52;9.90;;;;;;;;;;10442835;28;20055;-71
2022/06/04 02:29:42;;;;;;;24.73;14.52;;;;;;;;;;10442467;28;20099;-72
2022/06/04 02:34:51;;;;;;;20.60;12.93;;;;;;;;;;10442388;28;20036;-74
2022/06/04 02:39:58;;;;;;;25.20;13.65;;;;;;;;;;10429620;28;20487;-72
2022/06/04 02:45:11;;;;;;;22.13;15.00;;;;;;;;;;10414230;28;20030;-75
2022/06/04 02:50:32;;;;;;;21.83;14.95;;;;;;;;;;10428967;28;20049;-70
2022/06/04 02:55:35;;;;;;;24.17;16.27;;;;;;;;;;10440083;28;20589;-71
2022/06/04 03:00:35;;;;;;;20.42;14.13;;;;;;;;;;10401675;28;20025;-71
2022/06/04 03:05:36;;;;;;;26.67;16.48;;;;;;;;;;10427233;28;20021;-74
2022/06/04 03:10:36;;;;;;;22.40;15.65;;;;;;;;;;10443335;28;20059;-72
2022/06/04 03:15:37;;;;;;;22.60;15.52;;;;;;;;;;10402928;28;20029;-71
2022/06/04 03:20:37;;;;;;;32.97;16.27;;;;;;;;;;10402975;28;20022;-72
2022/06/04 03:25:41;;;;;;;27.35;13.52;;;;;;;;;;10402985;28;20032;-73
2022/06/04 03:30:41;;;;;;;21.88;13.38;;;;;;;;;;10401223;28;20033;-72
2022/06/04 03:35:42;;;;;;;17.67;11.77;;;;;;;;;;10402682;28;20458;-75
2022/06/04 03:40:43;;;;;;;19.33;11.00;;;;;;;;;;10401974;28;20472;-72
2022/06/04 03:45:43;;;;;;;13.02;9.88;;;;;;;;;;10408221;28;20100;-71
2022/06/04 03:50:43;;;;;;;15.20;10.65;;;;;;;;;;10408576;28;20430;-71
2022/06/04 03:55:43;;;;;;;14.73;9.68;;;;;;;;;;10392240;28;20428;-72
2022/06/04 04:00:45;;;;;;;18.35;10.25;;;;;;;;;;10409491;28;20018;-73
2022/06/04 04:05:47;;;;;;;15.50;9.20;;;;;;;;;;10409081;28;20471;-72
2022/06/04 04:10:47;;;;;;;14.00;8.18;;;;;;;;;;10408849;28;20021;-75
2022/06/04 04:15:48;;;;;;;10.30;7.68;;;;;;;;;;10407498;28;20499;-72
2022/06/04 04:20:48;;;;;;;15.02;7.88;;;;;;;;;;10407129;28;20022;-71
2022/06/04 04:25:48;;;;;;;10.20;7.07;;;;;;;;;;10438570;28;20021;-72
2022/06/04 04:30:48;;;;;;;10.57;7.50;;;;;;;;;;10422948;28;20407;-71
2022/06/04 04:35:48;;;;;;;8.05;5.65;;;;;;;;;;10422737;28;20506;-72
2022/06/04 04:40:49;;;;;;;9.82;6.15;;;;;;;;;;10425688;28;20032;-73
2022/06/04 04:45:50;;;;;;;10.90;6.50;;;;;;;;;;10446159;28;20031;-70
2022/06/04 04:50:50;;;;;;;13.55;6.30;;;;;;;;;;10445441;28;20021;-72
2022/06/04 04:55:50;;;;;;;10.35;7.22;;;;;;;;;;10444462;28;20037;-78
2022/06/04 05:00:51;;;;;;;8.77;6.30;;;;;;;;;;10445348;28;20017;-71
2022/06/04 05:06:01;;;;;;;14.00;6.67;;;;;;;;;;10428814;28;20033;-74
2022/06/04 05:11:21;;;;;;;8.70;6.60;;;;;;;;;;10428041;28;20675;-71
2022/06/04 05:16:23;;;;;;;12.55;6.30;;;;;;;;;;10445684;28;20032;-70
2022/06/04 05:21:25;;;;;;;11.63;6.70;;;;;;;;;;10445829;28;20044;-71
2022/06/04 05:26:26;;;;;;;8.98;7.03;;;;;;;;;;10446679;28;20074;-71
2022/06/04 05:31:26;;;;;;;13.13;8.55;;;;;;;;;;10412233;28;20402;-71
2022/06/04 05:36:28;;;;;;;13.00;7.97;;;;;;;;;;10410471;28;20406;-69
2022/06/04 05:41:28;;;;;;;14.57;7.72;;;;;;;;;;10455210;28;20107;-73
2022/06/04 05:46:29;;;;;;;15.63;7.37;;;;;;;;;;10452827;28;20017;-69
2022/06/04 05:51:30;;;;;;;11.97;7.80;;;;;;;;;;10457924;28;20527;-70
2022/06/04 05:56:31;;;;;;;11.73;7.25;;;;;;;;;;10455922;28;20128;-71
2022/06/04 06:01:32;;;;;;;17.35;6.65;;;;;;;;;;10435691;28;20378;-70
2022/06/04 06:06:33;;;;;;;15.85;8.80;;;;;;;;;;10459790;28;20027;-71
2022/06/04 06:11:33;;;;;;;14.80;6.18;;;;;;;;;;10454265;28;20029;-71
2022/06/04 06:16:34;;;;;;;17.08;6.25;;;;;;;;;;10453516;28;20032;-72
2022/06/04 06:21:35;;;;;;;8.93;5.43;;;;;;;;;;10449300;28;20101;-73
2022/06/04 06:26:41;;;;;;;6.93;5.00;;;;;;;;;;10452723;28;20043;-71
2022/06/04 06:31:41;;;;;;;19.52;9.88;;;;;;;;;;10452892;28;20017;-71
2022/06/04 06:36:42;;;;;;;9.52;5.70;;;;;;;;;;10444385;28;20025;-73
2022/06/04 06:41:42;;;;;;;11.35;5.75;;;;;;;;;;10432917;28;20502;-72
2022/06/04 06:46:44;;;;;;;13.33;6.13;;;;;;;;;;10440740;28;20067;-71
2022/06/04 06:51:49;;;;;;;13.32;6.05;;;;;;;;;;10441891;28;20541;-70
2022/06/04 06:56:51;;;;;;;10.98;5.50;;;;;;;;;;10430065;28;20053;-72
2022/06/04 07:01:51;;;;;;;10.38;5.65;;;;;;;;;;10398885;28;20045;-71
2022/06/04 07:06:53;;;;;;;6.73;3.93;;;;;;;;;;10416927;28;20108;-73
2022/06/04 07:11:53;;;;;;;8.52;3.75;;;;;;;;;;10401604;28;20028;-71
2022/06/04 07:16:55;;;;;;;6.65;3.95;;;;;;;;;;10404203;28;20033;-73
2022/06/04 07:21:55;;;;;;;12.07;4.22;;;;;;;;;;10409332;28;20075;-71
2022/06/04 07:26:57;;;;;;;11.25;4.30;;;;;;;;;;10409419;28;20121;-71
2022/06/04 07:31:57;;;;;;;10.40;4.00;;;;;;;;;;10409211;28;20501;-71
2022/06/04 07:36:57;;;;;;;16.60;5.30;;;;;;;;;;10392317;28;20029;-72
2022/06/04 07:41:57;;;;;;;6.30;3.92;;;;;;;;;;10409469;28;20048;-73
2022/06/04 07:46:58;;;;;;;11.50;4.50;;;;;;;;;;10424744;28;20596;-72
2022/06/04 07:51:59;;;;;;;6.47;3.67;;;;;;;;;;10408219;28;20024;-73
2022/06/04 07:56:59;;;;;;;7.53;4.00;;;;;;;;;;10409054;28;20103;-73
2022/06/04 08:01:59;;;;;;;8.90;4.00;;;;;;;;;;10407664;28;20020;-73
2022/06/04 08:07:01;;;;;;;7.78;4.05;;;;;;;;;;10408490;28;20476;-72
2022/06/04 08:12:01;;;;;;;8.80;4.22;;;;;;;;;;10407088;28;20022;-72
2022/06/04 08:17:02;;;;;;;12.03;4.60;;;;;;;;;;10406619;28;20407;-71
2022/06/04 08:22:02;;;;;;;10.33;4.37;;;;;;;;;;10454572;28;20028;-75
2022/06/04 08:27:03;;;;;;;9.02;3.92;;;;;;;;;;10457523;28;20091;-76
2022/06/04 08:32:04;;;;;;;10.73;4.20;;;;;;;;;;10406504;28;20523;-74
2022/06/04 08:37:06;;;;;;;7.10;3.53;;;;;;;;;;10408346;28;20116;-72
2022/06/04 08:42:10;;;;;;;9.50;4.15;;;;;;;;;;10406875;28;20025;-72
2022/06/04 08:47:17;;;;;;;5.63;3.70;;;;;;;;;;10408036;28;20029;-72
2022/06/04 08:52:20;;;;;;;5.03;3.78;;;;;;;;;;10446353;28;20469;-72
2022/06/04 08:57:35;;;;;;;4.68;2.97;;;;;;;;;;10449373;28;20658;-75
2022/06/04 09:02:56;;;;;;;7.88;3.85;;;;;;;;;;10447028;28;20489;-71
2022/06/04 09:07:59;;;;;;;9.20;4.95;;;;;;;;;;10446340;28;20111;-73
2022/06/04 09:13:04;;;;;;;14.57;4.28;;;;;;;;;;10445646;28;20032;-71
2022/06/04 09:18:11;;;;;;;5.22;3.30;;;;;;;;;;10445886;28;20498;-72
2022/06/04 09:23:11;;;;;;;6.53;3.70;;;;;;;;;;10445518;28;20021;-70
2022/06/04 09:28:35;;;;;;;5.97;3.47;;;;;;;;;;10442421;28;20526;-73
2022/06/04 09:33:42;;;;;;;10.23;3.65;;;;;;;;;;10404251;28;20065;-77
2022/06/04 09:38:51;;;;;;;6.93;3.40;;;;;;;;;;10433578;28;20554;-71
2022/06/04 09:44:00;;;;;;;5.05;2.95;;;;;;;;;;10395358;28;20609;-72
2022/06/04 09:49:04;;;;;;;6.20;2.83;;;;;;;;;;10404678;28;20029;-70
2022/06/04 09:54:05;;;;;;;3.42;2.40;;;;;;;;;;10403083;28;20431;-70
2022/06/04 09:59:07;;;;;;;9.90;2.70;;;;;;;;;;10403771;28;20024;-70
2022/06/04 10:04:14;;;;;;;5.45;2.85;;;;;;;;;;10404000;28;20029;-71
2022/06/04 10:14:37;;;;;;;5.47;3.20;;;;;;;;;;10403525;28;20033;-70
2022/06/04 10:19:37;;;;;;;8.82;3.33;;;;;;;;;;10402639;28;20436;-70
2022/06/04 10:24:52;;;;;;;7.07;3.03;;;;;;;;;;10403399;28;20022;-72
2022/06/04 10:29:53;;;;;;;6.57;3.80;;;;;;;;;;10402427;28;20029;-71
2022/06/04 10:35:01;;;;;;;5.32;3.17;;;;;;;;;;10438046;28;20029;-70
2022/06/04 10:40:05;;;;;;;4.88;2.70;;;;;;;;;;10407347;28;20017;-71
2022/06/04 10:45:05;;;;;;;5.55;2.83;;;;;;;;;;10401436;28;20021;-71
2022/06/04 10:50:08;;;;;;;8.38;2.60;;;;;;;;;;10408207;28;20020;-73
2022/06/04 10:55:11;;;;;;;13.65;4.95;;;;;;;;;;10451017;28;20496;-71
2022/06/04 11:00:14;;;;;;;7.10;3.03;;;;;;;;;;10427730;28;20404;-70
2022/06/04 11:05:29;;;;;;;7.50;2.92;;;;;;;;;;10410112;28;20025;-71
2022/06/04 11:10:31;;;;;;;9.82;3.05;;;;;;;;;;10439851;28;20027;-73
2022/06/04 11:15:35;;;;;;;7.50;3.65;;;;;;;;;;10450526;28;20025;-72
2022/06/04 11:20:39;;;;;;;7.85;3.90;;;;;;;;;;10393128;28;20104;-71
2022/06/04 11:25:42;;;;;;;8.75;4.10;;;;;;;;;;10438683;28;20049;-69
2022/06/04 11:30:42;;;;;;;8.48;3.80;;;;;;;;;;10450193;28;20108;-71
2022/06/04 11:35:46;;;;;;;7.47;3.88;;;;;;;;;;10415409;28;20021;-72
2022/06/04 11:41:05;;;;;;;6.65;4.40;;;;;;;;;;10409617;28;20053;-71
2022/06/04 11:46:05;;;;;;;4.80;3.28;;;;;;;;;;10408458;28;20108;-71
2022/06/04 11:51:12;;;;;;;8.00;4.00;;;;;;;;;;10408327;28;20028;-72
2022/06/04 11:56:21;;;;;;;8.23;4.80;;;;;;;;;;10409520;28;20171;-71
2022/06/04 12:01:32;;;;;;;9.38;4.70;;;;;;;;;;10407215;28;20113;-71
2022/06/04 12:06:35;;;;;;;10.70;5.30;;;;;;;;;;10438624;28;20087;-71
2022/06/04 12:11:39;;;;;;;9.02;4.20;;;;;;;;;;10453192;28;20025;-75
2022/06/04 12:17:02;;;;;;;8.20;5.10;;;;;;;;;;10407174;28;20021;-72
2022/06/04 12:27:52;;;;;;;8.73;4.90;;;;;;;;;;10438071;28;20025;-72
2022/06/04 12:32:56;;;;;;;10.80;5.47;;;;;;;;;;10406188;28;20033;-72
2022/06/04 12:37:58;;;;;;;15.13;5.85;;;;;;;;;;10406914;28;20018;-72
2022/06/04 12:43:01;;;;;;;10.00;5.28;;;;;;;;;;10423983;28;20024;-70
2022/06/04 12:48:02;;;;;;;11.32;5.60;;;;;;;;;;10425977;28;20083;-72
2022/06/04 12:53:22;;;;;;;9.00;5.18;;;;;;;;;;10440810;28;20713;-71
2022/06/04 12:58:52;;;;;;;11.73;5.43;;;;;;;;;;10402525;28;20119;-70
2022/06/04 13:04:26;;;;;;;10.15;5.22;;;;;;;;;;10422459;28;20585;-71
2022/06/04 13:09:39;;;;;;;5.85;4.60;;;;;;;;;;10411768;28;20032;-74
2022/06/04 13:14:55;;;;;;;10.77;5.10;;;;;;;;;;10435506;28;20020;-70
2022/06/04 13:20:00;;;;;;;15.95;5.60;;;;;;;;;;10454264;28;20466;-70
2022/06/04 13:25:05;;;;;;;20.02;6.40;;;;;;;;;;10445078;28;20584;-70
2022/06/04 13:30:06;;;;;;;7.97;5.85;;;;;;;;;;10449260;28;20024;-72
2022/06/04 13:35:06;;;;;;;10.27;6.35;;;;;;;;;;10452419;28;20048;-70
2022/06/04 13:40:12;;;;;;;7.75;5.13;;;;;;;;;;10469535;28;20021;-70
2022/06/04 13:45:28;;;;;;;11.02;6.70;;;;;;;;;;10437172;28;20103;-71
2022/06/04 13:50:30;;;;;;;8.32;6.10;;;;;;;;;;10470554;28;20059;-72
2022/06/04 13:55:33;;;;;;;8.15;5.93;;;;;;;;;;10449328;28;20045;-73
2022/06/04 14:00:34;;;;;;;10.55;5.75;;;;;;;;;;10456470;28;20028;-71
2022/06/04 14:05:46;;;;;;;7.68;5.28;;;;;;;;;;10453551;28;20511;-72
2022/06/04 14:11:05;;;;;;;15.90;6.30;;;;;;;;;;10451131;28;20108;-71
2022/06/04 14:16:15;;;;;;;16.70;5.35;;;;;;;;;;10447756;28;20536;-71
2022/06/04 14:21:30;;;;;;;9.13;6.03;;;;;;;;;;10451700;28;20124;-71
2022/06/04 14:26:45;;;;;;;10.75;6.47;;;;;;;;;;10449361;28;20479;-72
2022/06/04 14:31:45;;;;;;;7.82;5.43;;;;;;;;;;10449860;28;20487;-71
2022/06/04 14:36:47;;;;;;;9.82;5.18;;;;;;;;;;10451808;28;20032;-71
2022/06/04 14:41:47;;;;;;;9.18;6.72;;;;;;;;;;10456915;28;20031;-73
2022/06/04 14:47:06;;;;;;;8.13;4.30;;;;;;;;;;10446927;28;20033;-75
2022/06/04 14:52:25;;;;;;;8.70;4.25;;;;;;;;;;10443406;28;20066;-71
2022/06/04 14:57:46;;;;;;;5.95;3.45;;;;;;;;;;10448159;28;20634;-72
2022/06/04 15:02:54;;;;;;;8.55;3.65;;;;;;;;;;10440406;28;20029;-73
2022/06/04 15:08:13;;;;;;;5.80;3.25;;;;;;;;;;10450001;28;20029;-71
2022/06/04 15:13:28;;;;;;;6.47;3.45;;;;;;;;;;10453297;28;20036;-70
2022/06/04 15:18:41;;;;;;;10.68;3.38;;;;;;;;;;10450493;28;20024;-70
2022/06/04 15:24:00;;;;;;;6.88;3.30;;;;;;;;;;10442095;28;20025;-69
2022/06/04 15:34:43;;;;;;;9.32;3.75;;;;;;;;;;10446891;28;20028;-69
2022/06/04 15:39:59;;;;;;;4.80;3.50;;;;;;;;;;10457245;28;20565;-70
2022/06/04 15:45:03;;;;;;;6.65;3.40;;;;;;;;;;10448464;28;20031;-68
2022/06/04 15:55:24;;;;;;;7.00;2.17;;;;;;;;;;10437998;28;20053;-70
2022/06/04 16:00:27;;;;;;;6.25;2.45;;;;;;;;;;10406908;28;20025;-71
2022/06/04 16:05:29;;;;;;;6.75;2.33;;;;;;;;;;10408361;28;20028;-69
2022/06/04 16:10:35;;;;;;;9.20;3.45;;;;;;;;;;10406790;28;20022;-69
2022/06/04 16:15:54;;;;;;;6.77;3.37;;;;;;;;;;10407973;28;20517;-70
2022/06/04 16:20:55;;;;;;;8.90;3.78;;;;;;;;;;10406591;28;20389;-70
2022/06/04 16:25:55;;;;;;;8.93;4.25;;;;;;;;;;10405446;28;20029;-70
2022/06/04 16:31:02;;;;;;;7.32;3.03;;;;;;;;;;10405008;28;20087;-70
2022/06/04 16:36:03;;;;;;;7.95;2.85;;;;;;;;;;10405506;28;20110;-71
2022/06/04 16:46:25;;;;;;;5.55;3.10;;;;;;;;;;10406573;28;20057;-70
2022/06/04 16:51:26;;;;;;;5.05;2.83;;;;;;;;;;10453533;28;20029;-70
2022/06/04 16:56:26;;;;;;;6.20;3.08;;;;;;;;;;10446092;28;20053;-70
2022/06/04 17:01:28;;;;;;;2.92;2.63;;;;;;;;;;10431154;28;20039;-70
2022/06/04 17:06:47;;;;;;;5.10;3.40;;;;;;;;;;10445766;28;20605;-71
2022/06/04 17:11:56;;;;;;;9.75;3.25;;;;;;;;;;10445102;28;20055;-70
2022/06/04 17:17:15;;;;;;;14.18;3.30;;;;;;;;;;10444196;28;20025;-70
2022/06/04 17:22:25;;;;;;;7.80;3.17;;;;;;;;;;10444379;28;20406;-73
2022/06/04 17:27:48;;;;;;;7.32;2.90;;;;;;;;;;10574658;22;20049;-72
2022/06/04 17:33:07;;;;;;;6.25;2.75;;;;;;;;;;10438349;28;20028;-71
2022/06/04 17:38:16;;;;;;;9.32;3.58;;;;;;;;;;10460654;28;20414;-70
2022/06/04 17:43:17;;;;;;;6.50;2.85;;;;;;;;;;10443802;28;20464;-70
2022/06/04 17:48:17;;;;;;;4.72;2.78;;;;;;;;;;10460170;28;20112;-70
2022/06/04 17:53:17;;;;;;;5.85;3.05;;;;;;;;;;10459891;28;20021;-70
2022/06/04 17:58:19;;;;;;;5.72;3.22;;;;;;;;;;10460611;28;20110;-69
2022/06/04 18:03:19;;;;;;;7.30;3.13;;;;;;;;;;10432046;28;20416;-70
2022/06/04 18:08:19;;;;;;;8.68;3.58;;;;;;;;;;10360570;28;20506;-69
2022/06/04 18:13:20;;;;;;;6.45;2.92;;;;;;;;;;10389617;28;20584;-68
2022/06/04 18:18:20;;;;;;;5.10;3.17;;;;;;;;;;10392625;28;20496;-71
2022/06/04 18:23:20;;;;;;;4.97;3.00;;;;;;;;;;10359679;28;20061;-69
2022/06/04 18:28:21;;;;;;;10.35;3.83;;;;;;;;;;10397463;28;20111;-71
2022/06/04 18:33:21;;;;;;;6.57;3.30;;;;;;;;;;10398792;28;20079;-73
2022/06/04 18:38:21;;;;;;;7.78;3.45;;;;;;;;;;10400703;28;20021;-71
2022/06/04 18:59:22;;;;;;;9.40;4.30;;;;;;;;;;10361150;28;20408;-71
2022/06/04 19:04:23;;;;;;;9.30;4.00;;;;;;;;;;10367684;28;20021;-74
2022/06/04 19:09:23;;;;;;;8.88;4.45;;;;;;;;;;10396564;28;20017;-71
2022/06/04 19:14:25;;;;;;;7.22;4.38;;;;;;;;;;10404112;28;20036;-70
2022/06/04 19:19:27;;;;;;;9.52;4.20;;;;;;;;;;10408287;28;20017;-71
2022/06/04 19:24:36;;;;;;;14.30;4.65;;;;;;;;;;10380695;28;20136;-77
2022/06/04 19:29:38;;;;;;;8.68;4.40;;;;;;;;;;10405595;28;20507;-72
2022/06/04 19:34:39;;;;;;;13.32;5.75;;;;;;;;;;10407745;28;20029;-74
2022/06/04 19:39:39;;;;;;;10.65;5.60;;;;;;;;;;10405016;28;20013;-77
2022/06/04 19:44:40;;;;;;;11.95;6.32;;;;;;;;;;10407149;28;20022;-75
2022/06/04 19:49:44;;;;;;;13.48;5.28;;;;;;;;;;10378345;28;20140;-74
2022/06/04 20:00:05;;;;;;;9.55;6.45;;;;;;;;;;10406114;28;20049;-73
2022/06/04 20:05:06;;;;;;;12.95;6.05;;;;;;;;;;10406796;28;20027;-71
2022/06/04 20:10:08;;;;;;;21.20;6.18;;;;;;;;;;10405103;28;20393;-72
2022/06/04 20:15:11;;;;;;;8.82;5.55;;;;;;;;;;10404551;28;20021;-73
2022/06/04 20:20:14;;;;;;;8.73;6.00;;;;;;;;;;10404542;28;20029;-74
2022/06/04 20:25:15;;;;;;;12.07;5.05;;;;;;;;;;10405086;28;20565;-77
2022/06/04 20:30:15;;;;;;;9.37;6.07;;;;;;;;;;10377124;28;20030;-72
2022/06/04 20:35:18;;;;;;;16.30;7.30;;;;;;;;;;10389719;28;20018;-75
2022/06/04 20:40:19;;;;;;;11.77;6.60;;;;;;;;;;10368739;28;20080;-76
2022/06/04 20:45:21;;;;;;;12.50;6.53;;;;;;;;;;10363902;28;20522;-71
2022/06/04 20:50:23;;;;;;;10.98;5.95;;;;;;;;;;10364091;28;20022;-70
2022/06/04 20:55:23;;;;;;;16.60;6.18;;;;;;;;;;10388720;28;20025;-70
2022/06/04 21:00:24;;;;;;;11.13;6.43;;;;;;;;;;10390859;28;20028;-74
2022/06/04 21:05:24;;;;;;;9.98;5.78;;;;;;;;;;10362861;28;20141;-73
2022/06/04 21:10:24;;;;;;;17.25;7.38;;;;;;;;;;10364882;28;20032;-71
2022/06/04 21:15:25;;;;;;;12.07;6.70;;;;;;;;;;10368451;28;20026;-75
2022/06/04 21:20:26;;;;;;;9.65;6.82;;;;;;;;;;10403377;28;20026;-73
2022/06/04 21:25:27;;;;;;;15.40;7.03;;;;;;;;;;10403539;28;20053;-73
2022/06/04 21:30:28;;;;;;;14.13;7.20;;;;;;;;;;10403622;28;20033;-70
2022/06/04 21:40:48;;;;;;;15.85;8.43;;;;;;;;;;10388528;28;20093;-70
2022/06/04 21:45:48;;;;;;;14.13;6.55;;;;;;;;;;10360892;28;20574;-70
2022/06/04 21:50:49;;;;;;;10.60;6.87;;;;;;;;;;10364037;28;20049;-73
2022/06/04 21:55:50;;;;;;;12.90;6.33;;;;;;;;;;10392648;28;20495;-73
2022/06/04 22:01:03;;;;;;;18.45;6.65;;;;;;;;;;10373062;28;20684;-70
2022/06/04 22:06:03;;;;;;;12.98;6.25;;;;;;;;;;10360694;28;20030;-74
2022/06/04 22:11:03;;;;;;;11.87;5.83;;;;;;;;;;10362551;28;20096;-69
2022/06/04 22:16:03;;;;;;;11.32;5.80;;;;;;;;;;10396759;28;20021;-70
2022/06/04 22:21:04;;;;;;;16.42;6.20;;;;;;;;;;10395139;28;20094;-70
2022/06/04 22:26:05;;;;;;;13.23;6.97;;;;;;;;;;10401573;28;20137;-71
2022/06/04 22:31:05;;;;;;;12.27;6.67;;;;;;;;;;10400681;28;20018;-72
2022/06/04 22:36:06;;;;;;;9.45;6.47;;;;;;;;;;10400672;28;20555;-72
2022/06/04 22:41:08;;;;;;;9.60;6.35;;;;;;;;;;10400548;28;20022;-69
2022/06/04 22:46:22;;;;;;;14.02;6.88;;;;;;;;;;10403426;28;20021;-71
2022/06/04 22:51:47;;;;;;;9.82;7.15;;;;;;;;;;10414593;28;20026;-71
2022/06/04 22:56:43;;;;;;;14.98;6.68;;;;;;;;;;10414891;28;20025;-70
2022/06/04 23:01:44;;;;;;;12.00;6.07;;;;;;;;;;10415821;28;20029;-73
2022/06/04 23:06:45;;;;;;;11.52;6.65;;;;;;;;;;10414757;28;20025;-71
2022/06/04 23:22:24;;;;;;;10.75;6.88;;;;;;;;;;10415612;28;20470;-71
2022/06/04 23:27:25;;;;;;;13.45;6.93;;;;;;;;;;10414512;28;20128;-71
2022/06/04 23:32:25;;;;;;;15.27;7.40;;;;;;;;;;10414455;28;20024;-71
2022/06/04 23:37:25;;;;;;;12.63;6.22;;;;;;;;;;10413070;28;20400;-71
2022/06/04 23:42:26;;;;;;;8.38;5.88;;;;;;;;;;10413062;28;20017;-71
2022/06/04 23:47:26;;;;;;;10.45;5.97;;;;;;;;;;10413315;28;20396;-71
2022/06/04 23:52:26;;;;;;;13.07;5.85;;;;;;;;;;10412877;28;20465;-72
2022/06/04 23:57:26;;;;;;;12.93;6.43;;;;;;;;;;10410454;28;20112;-71
